createdAt,value
2019-05-12T00:00:58.533Z,0.00
2019-05-12T00:01:58.746Z,0.00
2019-05-12T00:02:59.119Z,0.00
2019-05-12T00:03:58.108Z,0.00
2019-05-12T00:04:58.265Z,0.00
2019-05-12T00:05:57.774Z,0.00
2019-05-12T00:06:58.571Z,0.00
2019-05-12T00:07:58.354Z,0.00
2019-05-12T00:08:57.952Z,0.00
2019-05-12T00:09:58.186Z,0.00
2019-05-12T00:10:58.290Z,0.00
2019-05-12T00:11:56.247Z,0.00
2019-05-12T00:12:58.221Z,0.00
2019-05-12T00:13:58.402Z,0.00
2019-05-12T00:14:56.123Z,0.00
2019-05-12T00:15:57.794Z,0.00
2019-05-12T00:16:57.992Z,0.00
2019-05-12T00:17:58.397Z,0.00
2019-05-12T00:18:58.383Z,0.00
2019-05-12T00:19:58.357Z,0.00
2019-05-12T00:20:57.799Z,0.00
2019-05-12T00:21:55.769Z,0.00
2019-05-12T00:22:58.033Z,0.00
2019-05-12T00:23:58.059Z,0.00
2019-05-12T00:24:55.531Z,0.00
2019-05-12T00:25:55.530Z,0.00
2019-05-12T00:26:55.412Z,0.00
2019-05-12T00:27:55.409Z,0.00
2019-05-12T00:28:55.294Z,0.00
2019-05-12T00:29:57.733Z,0.00
2019-05-12T00:30:55.180Z,0.00
2019-05-12T00:31:55.172Z,0.00
2019-05-12T00:32:55.172Z,0.00
2019-05-12T00:33:55.054Z,0.00
2019-05-12T00:34:55.053Z,0.00
2019-05-12T00:35:54.935Z,0.00
2019-05-12T00:36:54.933Z,0.00
2019-05-12T00:37:54.818Z,0.00
2019-05-12T00:38:54.815Z,0.00
2019-05-12T00:39:54.698Z,0.00
2019-05-12T00:40:54.696Z,0.00
2019-05-12T00:41:54.580Z,0.00
2019-05-12T00:42:54.577Z,0.00
2019-05-12T00:43:54.461Z,0.00
2019-05-12T00:44:54.459Z,0.00
2019-05-12T00:45:54.458Z,0.00
2019-05-12T00:46:54.342Z,0.00
2019-05-12T00:47:54.376Z,0.00
2019-05-12T00:48:54.222Z,0.00
2019-05-12T00:49:54.220Z,0.00
2019-05-12T00:50:54.103Z,0.00
2019-05-12T00:51:54.103Z,0.00
2019-05-12T00:52:53.985Z,0.00
2019-05-12T00:53:53.982Z,0.00
2019-05-12T00:54:53.866Z,0.00
2019-05-12T00:55:53.863Z,0.00
2019-05-12T00:56:53.785Z,0.00
2019-05-12T00:57:53.744Z,0.00
2019-05-12T00:58:53.629Z,0.00
2019-05-12T00:59:53.626Z,0.00
2019-05-12T01:00:53.626Z,0.00
2019-05-12T01:01:53.509Z,0.00
2019-05-12T01:02:53.507Z,0.00
2019-05-12T01:03:53.389Z,0.00
2019-05-12T01:04:53.387Z,0.00
2019-05-12T01:05:53.272Z,0.00
2019-05-12T01:06:53.268Z,0.00
2019-05-12T01:07:53.152Z,0.00
2019-05-12T01:08:53.150Z,0.00
2019-05-12T01:09:53.034Z,0.00
2019-05-12T01:10:53.032Z,0.00
2019-05-12T01:11:52.916Z,0.00
2019-05-12T01:12:52.912Z,0.00
2019-05-12T01:13:52.796Z,0.00
2019-05-12T01:14:52.793Z,0.00
2019-05-12T01:15:52.794Z,0.00
2019-05-12T01:16:52.675Z,0.00
2019-05-12T01:17:52.673Z,0.00
2019-05-12T01:18:52.556Z,0.00
2019-05-12T01:19:52.556Z,0.00
2019-05-12T01:20:52.438Z,0.00
2019-05-12T01:21:52.436Z,0.00
2019-05-12T01:22:52.320Z,0.00
2019-05-12T01:23:57.136Z,0.00
2019-05-12T01:24:52.200Z,0.00
2019-05-12T01:25:52.200Z,0.00
2019-05-12T01:26:52.081Z,0.00
2019-05-12T01:27:52.079Z,0.00
2019-05-12T01:28:52.080Z,0.00
2019-05-12T01:29:51.961Z,0.00
2019-05-12T01:30:51.960Z,0.00
2019-05-12T01:31:51.845Z,0.00
2019-05-12T01:32:51.844Z,0.00
2019-05-12T01:33:51.724Z,0.00
2019-05-12T01:34:51.722Z,0.00
2019-05-12T01:35:51.605Z,0.00
2019-05-12T01:36:51.603Z,0.00
2019-05-12T01:37:51.491Z,0.00
2019-05-12T01:38:51.485Z,0.00
2019-05-12T01:39:51.379Z,0.00
2019-05-12T01:40:51.367Z,0.00
2019-05-12T01:41:51.250Z,0.00
2019-05-12T01:42:51.247Z,0.00
2019-05-12T01:43:51.251Z,0.00
2019-05-12T01:44:51.130Z,0.00
2019-05-12T01:45:51.130Z,0.00
2019-05-12T01:46:51.009Z,0.00
2019-05-12T01:47:51.009Z,0.00
2019-05-12T01:48:50.891Z,0.00
2019-05-12T01:49:50.890Z,0.00
2019-05-12T01:50:50.774Z,0.00
2019-05-12T01:51:50.771Z,0.00
2019-05-12T01:52:50.657Z,0.00
2019-05-12T01:53:50.657Z,0.00
2019-05-12T01:54:50.535Z,0.00
2019-05-12T01:55:50.531Z,0.00
2019-05-12T01:56:50.419Z,0.00
2019-05-12T01:57:50.413Z,0.00
2019-05-12T01:58:50.416Z,0.00
2019-05-12T01:59:50.296Z,0.00
2019-05-12T02:00:50.296Z,0.00
2019-05-12T02:01:50.178Z,0.00
2019-05-12T02:02:50.176Z,0.00
2019-05-12T02:03:50.060Z,0.00
2019-05-12T02:04:50.057Z,0.00
2019-05-12T02:05:49.940Z,0.00
2019-05-12T02:06:49.939Z,0.00
2019-05-12T02:07:49.821Z,0.00
2019-05-12T02:08:49.819Z,0.00
2019-05-12T02:09:49.702Z,0.00
2019-05-12T02:10:49.701Z,0.00
2019-05-12T02:11:49.584Z,0.00
2019-05-12T02:12:49.581Z,0.00
2019-05-12T02:13:49.581Z,0.00
2019-05-12T02:14:49.464Z,0.00
2019-05-12T02:15:49.462Z,0.00
2019-05-12T02:16:49.345Z,0.00
2019-05-12T02:17:49.346Z,0.00
2019-05-12T02:18:49.245Z,0.00
2019-05-12T02:19:49.224Z,0.00
2019-05-12T02:20:49.108Z,0.00
2019-05-12T02:21:49.105Z,0.00
2019-05-12T02:22:48.989Z,0.00
2019-05-12T02:23:48.986Z,0.00
2019-05-12T02:24:48.872Z,0.00
2019-05-12T02:25:48.867Z,0.00
2019-05-12T02:26:48.849Z,0.00
2019-05-12T02:27:48.749Z,0.00
2019-05-12T02:28:48.749Z,0.00
2019-05-12T02:29:48.631Z,0.00
2019-05-12T02:30:50.162Z,0.00
2019-05-12T02:31:50.049Z,0.00
2019-05-12T02:32:53.547Z,0.00
2019-05-12T02:33:48.399Z,0.00
2019-05-12T02:34:48.392Z,0.00
2019-05-12T02:35:48.277Z,0.00
2019-05-12T02:36:48.274Z,0.00
2019-05-12T02:37:48.156Z,0.00
2019-05-12T02:38:48.154Z,0.00
2019-05-12T02:39:48.038Z,0.00
2019-05-12T02:40:48.036Z,0.00
2019-05-12T02:41:47.919Z,0.00
2019-05-12T02:42:47.916Z,0.00
2019-05-12T02:43:47.918Z,0.00
2019-05-12T02:44:47.802Z,0.00
2019-05-12T02:45:47.797Z,0.00
2019-05-12T02:46:47.681Z,0.00
2019-05-12T02:47:47.679Z,0.00
2019-05-12T02:48:47.563Z,0.00
2019-05-12T02:49:47.560Z,0.00
2019-05-12T02:50:47.446Z,0.00
2019-05-12T02:51:47.450Z,0.00
2019-05-12T02:52:47.323Z,0.00
2019-05-12T02:53:47.527Z,0.00
2019-05-12T02:54:55.654Z,0.00
2019-05-12T02:55:47.203Z,0.00
2019-05-12T02:56:47.087Z,0.00
2019-05-12T02:57:47.083Z,0.00
2019-05-12T02:58:47.083Z,0.00
2019-05-12T02:59:46.966Z,0.00
2019-05-12T03:00:46.968Z,0.00
2019-05-12T03:01:46.850Z,0.00
2019-05-12T03:02:46.846Z,0.00
2019-05-12T03:03:46.730Z,0.00
2019-05-12T03:04:46.733Z,0.00
2019-05-12T03:05:46.616Z,0.00
2019-05-12T03:06:46.610Z,0.00
2019-05-12T03:07:46.516Z,0.00
2019-05-12T03:08:46.489Z,0.00
2019-05-12T03:09:46.372Z,0.00
2019-05-12T03:10:46.376Z,0.00
2019-05-12T03:11:46.407Z,0.00
2019-05-12T03:12:46.251Z,0.00
2019-05-12T03:13:46.252Z,0.00
2019-05-12T03:14:46.133Z,0.00
2019-05-12T03:15:46.132Z,0.00
2019-05-12T03:16:46.018Z,0.00
2019-05-12T03:17:46.015Z,0.00
2019-05-12T03:18:45.907Z,0.00
2019-05-12T03:19:45.894Z,0.00
2019-05-12T03:20:45.813Z,0.00
2019-05-12T03:21:45.783Z,0.00
2019-05-12T03:22:45.657Z,0.00
2019-05-12T03:23:45.656Z,0.00
2019-05-12T03:24:45.541Z,0.00
2019-05-12T03:25:45.821Z,0.00
2019-05-12T03:26:45.428Z,0.00
2019-05-12T03:27:45.419Z,0.00
2019-05-12T03:28:45.418Z,0.00
2019-05-12T03:29:45.300Z,0.00
2019-05-12T03:30:48.430Z,0.00
2019-05-12T03:31:48.585Z,0.00
2019-05-12T03:32:47.473Z,0.00
2019-05-12T03:33:51.942Z,0.00
2019-05-12T03:34:47.301Z,0.00
2019-05-12T03:35:52.164Z,0.00
2019-05-12T03:36:50.616Z,0.00
2019-05-12T03:37:45.362Z,0.00
2019-05-12T03:38:45.076Z,0.00
2019-05-12T03:39:44.890Z,0.00
2019-05-12T03:40:45.313Z,0.00
2019-05-12T03:41:44.845Z,0.00
2019-05-12T03:42:44.646Z,0.00
2019-05-12T03:43:45.034Z,0.00
2019-05-12T03:44:44.650Z,0.00
2019-05-12T03:45:45.210Z,0.00
2019-05-12T03:46:45.584Z,0.00
2019-05-12T03:47:45.534Z,0.00
2019-05-12T03:48:45.399Z,0.00
2019-05-12T03:49:45.470Z,0.00
2019-05-12T03:50:46.067Z,0.00
2019-05-12T03:51:45.697Z,0.00
2019-05-12T03:52:44.993Z,0.00
2019-05-12T03:53:45.416Z,0.00
2019-05-12T03:54:45.198Z,0.00
2019-05-12T03:55:46.860Z,0.00
2019-05-12T03:56:45.066Z,0.00
2019-05-12T03:57:45.068Z,0.00
2019-05-12T03:58:45.256Z,0.00
2019-05-12T03:59:44.951Z,0.00
2019-05-12T04:00:44.702Z,0.00
2019-05-12T04:01:45.082Z,0.00
2019-05-12T04:02:45.462Z,0.00
2019-05-12T04:03:45.062Z,0.00
2019-05-12T04:04:45.269Z,0.00
2019-05-12T04:05:45.311Z,0.00
2019-05-12T04:06:45.321Z,0.00
2019-05-12T04:07:45.025Z,0.00
2019-05-12T04:08:45.617Z,0.00
2019-05-12T04:09:45.079Z,0.00
2019-05-12T04:10:45.339Z,0.00
2019-05-12T04:11:44.416Z,0.00
2019-05-12T04:12:44.851Z,0.00
2019-05-12T04:13:45.129Z,0.00
2019-05-12T04:14:44.879Z,0.00
2019-05-12T04:15:45.547Z,0.00
2019-05-12T04:16:45.208Z,0.00
2019-05-12T04:17:45.179Z,0.00
2019-05-12T04:18:45.047Z,0.00
2019-05-12T04:19:44.782Z,0.00
2019-05-12T04:20:45.085Z,0.00
2019-05-12T04:21:44.655Z,0.00
2019-05-12T04:22:44.700Z,0.00
2019-05-12T04:23:44.370Z,0.00
2019-05-12T04:24:44.580Z,0.00
2019-05-12T04:25:51.916Z,0.00
2019-05-12T04:26:45.001Z,0.00
2019-05-12T04:27:44.826Z,0.00
2019-05-12T04:28:45.343Z,0.00
2019-05-12T04:29:44.162Z,0.00
2019-05-12T04:30:44.482Z,0.00
2019-05-12T04:31:44.279Z,0.00
2019-05-12T04:32:44.829Z,0.00
2019-05-12T04:33:44.994Z,0.00
2019-05-12T04:34:44.536Z,0.00
2019-05-12T04:35:44.919Z,0.00
2019-05-12T04:36:44.648Z,0.00
2019-05-12T04:37:44.676Z,0.00
2019-05-12T04:38:44.678Z,0.00
2019-05-12T04:39:44.540Z,0.00
2019-05-12T04:40:44.694Z,0.00
2019-05-12T04:41:44.490Z,0.00
2019-05-12T04:42:44.876Z,0.00
2019-05-12T04:43:44.525Z,0.00
2019-05-12T04:44:41.134Z,0.00
2019-05-12T04:45:41.141Z,0.00
2019-05-12T04:46:41.018Z,0.00
2019-05-12T04:47:41.054Z,0.00
2019-05-12T04:48:40.900Z,0.00
2019-05-12T04:49:40.897Z,0.00
2019-05-12T04:50:40.780Z,0.00
2019-05-12T04:51:40.779Z,0.00
2019-05-12T04:52:40.665Z,0.00
2019-05-12T04:53:40.660Z,0.00
2019-05-12T04:54:40.544Z,0.00
2019-05-12T04:55:40.541Z,0.00
2019-05-12T04:56:40.430Z,0.00
2019-05-12T04:57:40.422Z,0.00
2019-05-12T04:58:40.307Z,0.00
2019-05-12T04:59:40.302Z,0.00
2019-05-12T05:00:40.304Z,4.00
2019-05-12T05:01:40.182Z,4.00
2019-05-12T05:02:40.227Z,4.00
2019-05-12T05:03:40.068Z,4.00
2019-05-12T05:04:40.064Z,4.00
2019-05-12T05:05:39.947Z,4.00
2019-05-12T05:06:39.946Z,4.00
2019-05-12T05:07:39.833Z,4.00
2019-05-12T05:08:39.826Z,4.00
2019-05-12T05:09:39.711Z,4.00
2019-05-12T05:10:39.707Z,4.00
2019-05-12T05:11:39.592Z,4.00
2019-05-12T05:12:39.588Z,4.00
2019-05-12T05:13:39.921Z,4.00
2019-05-12T05:14:39.474Z,4.00
2019-05-12T05:15:39.353Z,4.00
2019-05-12T05:16:39.351Z,4.00
2019-05-12T05:17:39.354Z,4.00
2019-05-12T05:18:40.918Z,0.00
2019-05-12T05:19:39.232Z,0.00
2019-05-12T05:20:39.115Z,0.00
2019-05-12T05:21:39.112Z,0.00
2019-05-12T05:22:38.996Z,0.00
2019-05-12T05:23:38.994Z,0.00
2019-05-12T05:24:38.877Z,0.00
2019-05-12T05:25:38.875Z,0.00
2019-05-12T05:26:38.758Z,0.00
2019-05-12T05:27:38.755Z,4.00
2019-05-12T05:28:38.639Z,0.00
2019-05-12T05:29:38.637Z,0.00
2019-05-12T05:30:38.526Z,4.00
2019-05-12T05:31:38.517Z,4.00
2019-05-12T05:32:38.518Z,4.00
2019-05-12T05:33:38.402Z,4.00
2019-05-12T05:34:38.400Z,4.00
2019-05-12T05:35:39.831Z,4.00
2019-05-12T05:36:38.281Z,4.00
2019-05-12T05:37:41.433Z,4.00
2019-05-12T05:38:38.165Z,4.00
2019-05-12T05:39:47.915Z,4.00
2019-05-12T05:40:38.042Z,4.00
2019-05-12T05:41:40.195Z,4.00
2019-05-12T05:42:37.922Z,4.00
2019-05-12T05:43:37.807Z,4.00
2019-05-12T05:44:38.191Z,4.00
2019-05-12T05:45:37.688Z,4.00
2019-05-12T05:46:39.190Z,4.00
2019-05-12T05:47:37.574Z,4.00
2019-05-12T05:48:37.567Z,4.00
2019-05-12T05:49:37.566Z,0.00
2019-05-12T05:50:37.448Z,0.00
2019-05-12T05:51:39.622Z,4.00
2019-05-12T05:52:38.731Z,0.00
2019-05-12T05:53:37.328Z,0.00
2019-05-12T05:54:39.955Z,0.00
2019-05-12T05:55:37.211Z,0.00
2019-05-12T05:56:42.611Z,0.00
2019-05-12T05:57:37.090Z,0.00
2019-05-12T05:58:40.269Z,0.00
2019-05-12T05:59:37.064Z,0.00
2019-05-12T06:00:39.347Z,0.00
2019-05-12T06:01:40.098Z,0.00
2019-05-12T06:02:40.300Z,0.00
2019-05-12T06:03:36.734Z,4.00
2019-05-12T06:04:39.178Z,4.00
2019-05-12T06:05:38.537Z,4.00
2019-05-12T06:06:36.617Z,4.00
2019-05-12T06:07:39.092Z,4.00
2019-05-12T06:08:36.501Z,0.00
2019-05-12T06:09:36.377Z,0.00
2019-05-12T06:10:40.359Z,0.00
2019-05-12T06:11:36.268Z,0.00
2019-05-12T06:12:40.487Z,0.00
2019-05-12T06:13:36.141Z,0.00
2019-05-12T06:14:36.139Z,4.00
2019-05-12T06:15:40.646Z,4.00
2019-05-12T06:16:36.022Z,4.00
2019-05-12T06:17:35.903Z,4.00
2019-05-12T06:18:35.901Z,4.00
2019-05-12T06:19:35.784Z,4.00
2019-05-12T06:20:38.212Z,4.00
2019-05-12T06:21:38.209Z,4.00
2019-05-12T06:22:35.663Z,4.00
2019-05-12T06:23:39.153Z,4.00
2019-05-12T06:24:35.545Z,4.00
2019-05-12T06:25:46.413Z,4.00
2019-05-12T06:26:35.915Z,4.00
2019-05-12T06:27:35.945Z,4.00
2019-05-12T06:28:39.351Z,0.00
2019-05-12T06:29:35.306Z,0.00
2019-05-12T06:30:43.935Z,4.00
2019-05-12T06:31:35.187Z,4.00
2019-05-12T06:32:35.074Z,4.00
2019-05-12T06:33:36.214Z,4.00
2019-05-12T06:34:34.952Z,4.00
2019-05-12T06:35:40.805Z,4.00
2019-05-12T06:36:34.832Z,4.00
2019-05-12T06:37:34.830Z,8.00
2019-05-12T06:38:38.703Z,8.00
2019-05-12T06:39:34.711Z,4.00
2019-05-12T06:40:41.065Z,8.00
2019-05-12T06:41:34.593Z,8.00
2019-05-12T06:42:34.595Z,8.00
2019-05-12T06:43:38.357Z,8.00
2019-05-12T06:44:34.473Z,8.00
2019-05-12T06:45:42.039Z,16.00
2019-05-12T06:46:34.384Z,8.00
2019-05-12T06:47:34.463Z,16.00
2019-05-12T06:48:34.234Z,16.00
2019-05-12T06:49:34.122Z,16.00
2019-05-12T06:50:38.973Z,12.00
2019-05-12T06:51:34.104Z,16.00
2019-05-12T06:52:38.664Z,12.00
2019-05-12T06:53:33.881Z,8.00
2019-05-12T06:54:33.878Z,12.00
2019-05-12T06:55:38.829Z,8.00
2019-05-12T06:56:34.346Z,8.00
2019-05-12T06:57:34.361Z,8.00
2019-05-12T06:58:34.424Z,8.00
2019-05-12T06:59:33.935Z,4.00
2019-05-12T07:00:35.048Z,4.00
2019-05-12T07:01:33.622Z,4.00
2019-05-12T07:02:36.250Z,8.00
2019-05-12T07:03:36.843Z,8.00
2019-05-12T07:04:33.951Z,12.00
2019-05-12T07:05:38.016Z,4.00
2019-05-12T07:06:33.878Z,4.00
2019-05-12T07:07:41.727Z,4.00
2019-05-12T07:08:38.244Z,4.00
2019-05-12T07:09:35.363Z,12.00
2019-05-12T07:10:42.158Z,8.00
2019-05-12T07:11:42.557Z,20.00
2019-05-12T07:12:43.506Z,8.00
2019-05-12T07:13:34.221Z,20.00
2019-05-12T07:14:34.518Z,24.00
2019-05-12T07:15:35.709Z,16.00
2019-05-12T07:16:34.121Z,20.00
2019-05-12T07:17:35.650Z,12.00
2019-05-12T07:18:36.991Z,24.00
2019-05-12T07:19:33.727Z,12.00
2019-05-12T07:20:35.343Z,20.00
2019-05-12T07:21:33.534Z,20.00
2019-05-12T07:22:43.812Z,12.00
2019-05-12T07:23:33.732Z,8.00
2019-05-12T07:24:34.057Z,12.00
2019-05-12T07:25:36.285Z,12.00
2019-05-12T07:26:33.889Z,8.00
2019-05-12T07:27:36.691Z,16.00
2019-05-12T07:28:36.279Z,8.00
2019-05-12T07:29:33.830Z,8.00
2019-05-12T07:30:34.832Z,8.00
2019-05-12T07:31:33.666Z,8.00
2019-05-12T07:32:34.240Z,8.00
2019-05-12T07:33:35.269Z,8.00
2019-05-12T07:34:33.408Z,4.00
2019-05-12T07:35:33.688Z,8.00
2019-05-12T07:36:33.350Z,8.00
2019-05-12T07:37:31.499Z,8.00
2019-05-12T07:38:31.384Z,4.00
2019-05-12T07:39:31.382Z,12.00
2019-05-12T07:40:34.688Z,12.00
2019-05-12T07:41:31.261Z,8.00
2019-05-12T07:42:38.925Z,8.00
2019-05-12T07:43:33.649Z,12.00
2019-05-12T07:44:34.407Z,8.00
2019-05-12T07:45:31.022Z,4.00
2019-05-12T07:46:31.023Z,4.00
2019-05-12T07:47:33.039Z,8.00
2019-05-12T07:48:33.256Z,4.00
2019-05-12T07:49:36.900Z,8.00
2019-05-12T07:50:30.786Z,4.00
2019-05-12T07:51:38.350Z,8.00
2019-05-12T07:52:30.667Z,8.00
2019-05-12T07:53:30.551Z,4.00
2019-05-12T07:54:37.299Z,8.00
2019-05-12T07:55:30.431Z,8.00
2019-05-12T07:56:32.748Z,24.00
2019-05-12T07:57:30.312Z,12.00
2019-05-12T07:58:30.311Z,16.00
2019-05-12T07:59:38.843Z,16.00
2019-05-12T08:00:30.190Z,8.00
2019-05-12T08:01:30.078Z,8.00
2019-05-12T08:02:31.845Z,12.00
2019-05-12T08:03:30.073Z,32.00
2019-05-12T08:04:31.596Z,28.00
2019-05-12T08:05:57.344Z,28.00
2019-05-12T08:06:32.534Z,28.00
2019-05-12T08:07:30.157Z,28.00
2019-05-12T08:08:29.716Z,28.00
2019-05-12T08:09:32.289Z,28.00
2019-05-12T08:10:29.597Z,28.00
2019-05-12T08:11:36.642Z,16.00
2019-05-12T08:12:29.478Z,8.00
2019-05-12T08:13:31.263Z,8.00
2019-05-12T08:14:29.596Z,8.00
2019-05-12T08:15:29.357Z,8.00
2019-05-12T08:16:33.658Z,8.00
2019-05-12T08:17:29.238Z,8.00
2019-05-12T08:18:35.662Z,12.00
2019-05-12T08:19:29.119Z,28.00
2019-05-12T08:20:29.121Z,12.00
2019-05-12T08:21:29.003Z,4.00
2019-05-12T08:22:29.469Z,4.00
2019-05-12T08:23:28.883Z,4.00
2019-05-12T08:24:28.882Z,4.00
2019-05-12T08:25:28.989Z,4.00
2019-05-12T08:26:28.763Z,4.00
2019-05-12T08:27:28.672Z,4.00
2019-05-12T08:28:36.195Z,8.00
2019-05-12T08:29:28.528Z,4.00
2019-05-12T08:30:28.525Z,28.00
2019-05-12T08:31:33.151Z,32.00
2019-05-12T08:32:28.408Z,28.00
2019-05-12T08:33:28.289Z,32.00
2019-05-12T08:34:28.288Z,28.00
2019-05-12T08:35:34.611Z,8.00
2019-05-12T08:36:28.168Z,12.00
2019-05-12T08:37:28.168Z,24.00
2019-05-12T08:38:28.058Z,12.00
2019-05-12T08:39:28.050Z,8.00
2019-05-12T08:40:27.939Z,8.00
2019-05-12T08:41:27.929Z,8.00
2019-05-12T08:42:27.813Z,8.00
2019-05-12T08:43:27.811Z,8.00
2019-05-12T08:44:33.389Z,8.00
2019-05-12T08:45:33.991Z,8.00
2019-05-12T08:46:27.576Z,8.00
2019-05-12T08:47:28.961Z,8.00
2019-05-12T08:48:27.463Z,8.00
2019-05-12T08:49:35.866Z,8.00
2019-05-12T08:50:31.669Z,8.00
2019-05-12T08:51:27.334Z,8.00
2019-05-12T08:52:30.697Z,4.00
2019-05-12T08:53:27.216Z,12.00
2019-05-12T08:54:27.232Z,28.00
2019-05-12T08:55:31.247Z,32.00
2019-05-12T08:56:27.097Z,32.00
2019-05-12T08:57:26.980Z,32.00
2019-05-12T08:58:33.935Z,12.00
2019-05-12T08:59:27.521Z,32.00
2019-05-12T09:00:26.859Z,8.00
2019-05-12T09:01:30.678Z,8.00
2019-05-12T09:02:26.740Z,12.00
2019-05-12T09:03:30.326Z,12.00
2019-05-12T09:04:26.621Z,12.00
2019-05-12T09:05:33.596Z,32.00
2019-05-12T09:06:26.503Z,12.00
2019-05-12T09:07:30.292Z,8.00
2019-05-12T09:08:26.383Z,4.00
2019-05-12T09:09:26.269Z,8.00
2019-05-12T09:10:26.264Z,8.00
2019-05-12T09:11:26.264Z,4.00
2019-05-12T09:12:26.147Z,4.00
2019-05-12T09:13:26.146Z,4.00
2019-05-12T09:14:26.028Z,4.00
2019-05-12T09:15:26.027Z,4.00
2019-05-12T09:16:25.912Z,8.00
2019-05-12T09:17:25.956Z,8.00
2019-05-12T09:18:33.471Z,8.00
2019-05-12T09:19:27.260Z,8.00
2019-05-12T09:20:25.672Z,4.00
2019-05-12T09:21:31.565Z,8.00
2019-05-12T09:22:25.552Z,28.00
2019-05-12T09:23:25.551Z,32.00
2019-05-12T09:24:27.377Z,36.00
2019-05-12T09:25:25.432Z,28.00
2019-05-12T09:26:28.368Z,12.00
2019-05-12T09:27:25.315Z,12.00
2019-05-12T09:28:25.312Z,8.00
2019-05-12T09:29:25.365Z,8.00
2019-05-12T09:30:25.193Z,8.00
2019-05-12T09:31:29.325Z,8.00
2019-05-12T09:32:25.075Z,8.00
2019-05-12T09:33:27.635Z,4.00
2019-05-12T09:34:24.956Z,8.00
2019-05-12T09:35:28.760Z,16.00
2019-05-12T09:36:24.839Z,36.00
2019-05-12T09:37:24.725Z,12.00
2019-05-12T09:38:26.389Z,24.00
2019-05-12T09:39:24.602Z,12.00
2019-05-12T09:40:24.806Z,20.00
2019-05-12T09:41:24.482Z,32.00
2019-05-12T09:42:28.564Z,32.00
2019-05-12T09:43:24.479Z,36.00
2019-05-12T09:44:26.542Z,56.00
2019-05-12T09:45:24.361Z,36.00
2019-05-12T09:46:28.250Z,24.00
2019-05-12T09:47:27.611Z,64.00
2019-05-12T09:48:24.663Z,64.00
2019-05-12T09:49:30.923Z,64.00
2019-05-12T09:50:24.967Z,64.00
2019-05-12T09:51:24.487Z,24.00
2019-05-12T09:52:27.157Z,24.00
2019-05-12T09:53:23.902Z,24.00
2019-05-12T09:54:25.924Z,16.00
2019-05-12T09:55:24.796Z,12.00
2019-05-12T09:56:24.011Z,12.00
2019-05-12T09:57:23.923Z,12.00
2019-05-12T09:58:27.651Z,8.00
2019-05-12T09:59:25.779Z,8.00
2019-05-12T10:00:23.934Z,8.00
2019-05-12T10:01:24.172Z,8.00
2019-05-12T10:02:23.889Z,8.00
2019-05-12T10:03:24.212Z,12.00
2019-05-12T10:04:23.293Z,12.00
2019-05-12T10:05:23.172Z,16.00
2019-05-12T10:06:24.563Z,16.00
2019-05-12T10:07:23.054Z,20.00
2019-05-12T10:08:24.206Z,20.00
2019-05-12T10:09:24.460Z,16.00
2019-05-12T10:10:24.258Z,16.00
2019-05-12T10:11:23.720Z,20.00
2019-05-12T10:12:22.814Z,20.00
2019-05-12T10:13:28.203Z,20.00
2019-05-12T10:14:23.573Z,16.00
2019-05-12T10:15:24.783Z,16.00
2019-05-12T10:16:24.118Z,16.00
2019-05-12T10:17:28.412Z,16.00
2019-05-12T10:18:24.418Z,16.00
2019-05-12T10:19:23.577Z,16.00
2019-05-12T10:20:24.094Z,16.00
2019-05-12T10:21:23.772Z,20.00
2019-05-12T10:22:23.516Z,20.00
2019-05-12T10:23:25.149Z,16.00
2019-05-12T10:24:22.107Z,24.00
2019-05-12T10:25:23.201Z,20.00
2019-05-12T10:26:21.986Z,24.00
2019-05-12T10:27:27.225Z,28.00
2019-05-12T10:28:23.790Z,24.00
2019-05-12T10:29:24.192Z,36.00
2019-05-12T10:30:23.448Z,32.00
2019-05-12T10:31:24.087Z,32.00
2019-05-12T10:32:23.935Z,36.00
2019-05-12T10:33:23.260Z,36.00
2019-05-12T10:34:23.808Z,40.00
2019-05-12T10:35:24.550Z,16.00
2019-05-12T10:36:21.507Z,16.00
2019-05-12T10:37:25.402Z,20.00
2019-05-12T10:38:21.387Z,16.00
2019-05-12T10:39:21.277Z,16.00
2019-05-12T10:40:23.218Z,12.00
2019-05-12T10:41:21.151Z,8.00
2019-05-12T10:42:21.150Z,8.00
2019-05-12T10:43:21.034Z,4.00
2019-05-12T10:44:21.031Z,8.00
2019-05-12T10:45:21.429Z,8.00
2019-05-12T10:46:24.474Z,8.00
2019-05-12T10:47:20.794Z,4.00
2019-05-12T10:48:23.200Z,4.00
2019-05-12T10:49:20.675Z,8.00
2019-05-12T10:50:20.675Z,8.00
2019-05-12T10:51:20.674Z,8.00
2019-05-12T10:52:21.516Z,8.00
2019-05-12T10:53:20.555Z,8.00
2019-05-12T10:54:20.436Z,8.00
2019-05-12T10:55:20.436Z,32.00
2019-05-12T10:56:20.317Z,32.00
2019-05-12T10:57:20.333Z,32.00
2019-05-12T10:58:20.199Z,32.00
2019-05-12T10:59:30.165Z,32.00
2019-05-12T11:00:25.034Z,24.00
2019-05-12T11:01:20.078Z,32.00
2019-05-12T11:02:20.547Z,12.00
2019-05-12T11:03:19.959Z,12.00
2019-05-12T11:04:25.127Z,12.00
2019-05-12T11:05:22.970Z,8.00
2019-05-12T11:06:19.726Z,8.00
2019-05-12T11:07:23.023Z,12.00
2019-05-12T11:08:19.724Z,8.00
2019-05-12T11:09:21.298Z,24.00
2019-05-12T11:10:20.253Z,12.00
2019-05-12T11:11:19.483Z,16.00
2019-05-12T11:12:25.233Z,32.00
2019-05-12T11:13:19.365Z,16.00
2019-05-12T11:14:20.182Z,12.00
2019-05-12T11:15:19.249Z,8.00
2019-05-12T11:16:22.905Z,12.00
2019-05-12T11:17:19.128Z,12.00
2019-05-12T11:18:20.693Z,20.00
2019-05-12T11:19:19.044Z,20.00
2019-05-12T11:20:19.009Z,24.00
2019-05-12T11:21:18.892Z,8.00
2019-05-12T11:22:18.888Z,8.00
2019-05-12T11:23:18.889Z,4.00
2019-05-12T11:24:18.769Z,4.00
2019-05-12T11:25:18.768Z,4.00
2019-05-12T11:26:18.652Z,4.00
2019-05-12T11:27:18.649Z,0.00
2019-05-12T11:28:18.563Z,0.00
2019-05-12T11:29:18.536Z,4.00
2019-05-12T11:30:18.414Z,4.00
2019-05-12T11:31:18.415Z,4.00
2019-05-12T11:32:18.296Z,4.00
2019-05-12T11:33:18.377Z,4.00
2019-05-12T11:34:18.181Z,4.00
2019-05-12T11:35:18.174Z,4.00
2019-05-12T11:36:18.058Z,8.00
2019-05-12T11:37:18.054Z,8.00
2019-05-12T11:38:17.939Z,4.00
2019-05-12T11:39:17.941Z,8.00
2019-05-12T11:40:17.820Z,12.00
2019-05-12T11:41:20.236Z,8.00
2019-05-12T11:42:17.821Z,12.00
2019-05-12T11:43:17.700Z,8.00
2019-05-12T11:44:17.699Z,8.00
2019-05-12T11:45:17.581Z,8.00
2019-05-12T11:46:17.588Z,8.00
2019-05-12T11:47:24.391Z,8.00
2019-05-12T11:48:17.460Z,8.00
2019-05-12T11:49:21.613Z,8.00
2019-05-12T11:50:17.342Z,8.00
2019-05-12T11:51:20.760Z,32.00
2019-05-12T11:52:19.387Z,36.00
2019-05-12T11:53:17.106Z,32.00
2019-05-12T11:54:17.105Z,36.00
2019-05-12T11:55:21.364Z,16.00
2019-05-12T11:56:16.985Z,12.00
2019-05-12T11:57:20.080Z,16.00
2019-05-12T11:58:16.867Z,12.00
2019-05-12T11:59:16.867Z,16.00
2019-05-12T12:00:16.747Z,16.00
2019-05-12T12:01:16.746Z,12.00
2019-05-12T12:02:20.256Z,12.00
2019-05-12T12:03:18.001Z,12.00
2019-05-12T12:04:16.511Z,12.00
2019-05-12T12:05:16.509Z,16.00
2019-05-12T12:06:16.392Z,12.00
2019-05-12T12:07:16.403Z,32.00
2019-05-12T12:08:16.273Z,32.00
2019-05-12T12:09:18.905Z,12.00
2019-05-12T12:10:16.155Z,12.00
2019-05-12T12:11:21.977Z,12.00
2019-05-12T12:12:16.035Z,12.00
2019-05-12T12:13:19.253Z,12.00
2019-05-12T12:14:15.918Z,12.00
2019-05-12T12:15:20.592Z,8.00
2019-05-12T12:16:15.915Z,8.00
2019-05-12T12:17:15.797Z,8.00
2019-05-12T12:18:15.832Z,8.00
2019-05-12T12:19:15.677Z,36.00
2019-05-12T12:20:22.063Z,40.00
2019-05-12T12:21:15.561Z,40.00
2019-05-12T12:22:20.480Z,36.00
2019-05-12T12:23:15.442Z,36.00
2019-05-12T12:24:15.446Z,40.00
2019-05-12T12:25:15.711Z,36.00
2019-05-12T12:26:15.319Z,36.00
2019-05-12T12:27:15.203Z,40.00
2019-05-12T12:28:15.199Z,40.00
2019-05-12T12:29:15.084Z,16.00
2019-05-12T12:30:19.478Z,16.00
2019-05-12T12:31:15.081Z,8.00
2019-05-12T12:32:18.385Z,8.00
2019-05-12T12:33:14.963Z,8.00
2019-05-12T12:34:23.203Z,8.00
2019-05-12T12:35:15.116Z,4.00
2019-05-12T12:36:14.726Z,8.00
2019-05-12T12:37:19.031Z,4.00
2019-05-12T12:38:14.609Z,4.00
2019-05-12T12:39:14.607Z,4.00
2019-05-12T12:40:14.550Z,4.00
2019-05-12T12:41:14.486Z,4.00
2019-05-12T12:42:14.370Z,4.00
2019-05-12T12:43:14.367Z,8.00
2019-05-12T12:44:14.252Z,4.00
2019-05-12T12:45:14.249Z,8.00
2019-05-12T12:46:18.277Z,4.00
2019-05-12T12:47:14.133Z,4.00
2019-05-12T12:48:14.129Z,12.00
2019-05-12T12:49:14.114Z,8.00
2019-05-12T12:50:14.011Z,40.00
2019-05-12T12:51:17.311Z,40.00
2019-05-12T12:52:13.978Z,40.00
2019-05-12T12:53:13.776Z,40.00
2019-05-12T12:54:13.772Z,40.00
2019-05-12T12:55:14.011Z,40.00
2019-05-12T12:56:16.101Z,40.00
2019-05-12T12:57:13.774Z,40.00
2019-05-12T12:58:14.068Z,40.00
2019-05-12T12:59:14.633Z,24.00
2019-05-12T13:00:13.845Z,32.00
2019-05-12T13:01:21.872Z,8.00
2019-05-12T13:02:14.267Z,8.00
2019-05-12T13:03:14.350Z,8.00
2019-05-12T13:04:13.356Z,8.00
2019-05-12T13:05:13.614Z,36.00
2019-05-12T13:06:13.492Z,40.00
2019-05-12T13:07:13.742Z,12.00
2019-05-12T13:08:12.942Z,44.00
2019-05-12T13:09:20.994Z,16.00
2019-05-12T13:10:14.223Z,32.00
2019-05-12T13:11:14.685Z,24.00